Nemo, South Dakota
Current Conditions -  °F | °C
As of 4:58 AM on Monday 24 Nov 2014 (Local Time) from KRCA Reporting Station
Clear Clear  
Wind Chill: 15°   Ceiling: Unl
Heat Index: 26°   Visibility: 10mi
Dew Point: 18°   Wind: 10mph
Humidity: 74%   Direction: 360°N
Pressure: 29.74"   Gusts: NA
Location:  44.19°N, 103.51°W
Report Text: KRCA 241158Z AUTO 36009KT 10SM CLR M04/M08 A2974 RMK AO2 SLP104 T10361076 10007 21038 53005 $
Loading
Personal Weather Stations






























Interactive Weather Map New forecast layout! Learn more

10-Day Weather Forecast

Advertisements
Track Severe Weather on mobile